Letcher, Kentucky
Current Conditions -  °F | °C
As of 3:35 PM on Tuesday 25 Nov 2014 (Local Time) from KLNP Reporting Station
Clear Clear  
Wind Chill: 52°   Ceiling: Unl
Heat Index: 52°   Visibility: 10mi
Dew Point: 23°   Wind: 8mph
Humidity: 33%   Direction: 230°SW
Pressure: 30.05"   Gusts: NA
Location:  37.15°N, 82.96°W
Report Text: KLNP 252035Z AUTO 23007KT 10SM CLR 11/M05 A3005 RMK AO2
Loading
Personal Weather Stations






























Interactive Weather Map New forecast layout! Learn more

10-Day Weather Forecast

Advertisements
Track Severe Weather on mobile